sensor_id;sensor_type;location;lat;lon;timestamp;P1;durP1;ratioP1;P2;durP2;ratioP2
5297;SDS011;14738;42.668;23.250;2023-12-28T00:01:08;10.60;;;7.40;;
5297;SDS011;14738;42.668;23.250;2023-12-28T00:03:33;13.77;;;9.70;;
5297;SDS011;14738;42.668;23.250;2023-12-28T00:05:59;16.73;;;8.67;;
5297;SDS011;14738;42.668;23.250;2023-12-28T00:08:24;10.90;;;8.67;;
5297;SDS011;14738;42.668;23.250;2023-12-28T00:10:50;13.73;;;10.33;;
5297;SDS011;14738;42.668;23.250;2023-12-28T00:13:15;12.87;;;10.20;;
5297;SDS011;14738;42.668;23.250;2023-12-28T00:15:41;15.30;;;10.90;;
5297;SDS011;14738;42.668;23.250;2023-12-28T00:18:06;13.20;;;10.43;;
5297;SDS011;14738;42.668;23.250;2023-12-28T00:20:32;17.13;;;11.67;;
5297;SDS011;14738;42.668;23.250;2023-12-28T00:22:57;13.33;;;11.47;;
5297;SDS011;14738;42.668;23.250;2023-12-28T00:25:23;19.03;;;12.13;;
5297;SDS011;14738;42.668;23.250;2023-12-28T00:27:48;19.63;;;13.07;;
5297;SDS011;14738;42.668;23.250;2023-12-28T00:30:14;16.03;;;12.17;;
5297;SDS011;14738;42.668;23.250;2023-12-28T00:32:42;16.30;;;12.30;;
5297;SDS011;14738;42.668;23.250;2023-12-28T00:35:09;13.77;;;10.87;;
5297;SDS011;14738;42.668;23.250;2023-12-28T00:37:35;15.90;;;10.77;;
5297;SDS011;14738;42.668;23.250;2023-12-28T00:40:00;12.47;;;9.87;;
5297;SDS011;14738;42.668;23.250;2023-12-28T00:42:26;13.20;;;9.30;;
5297;SDS011;14738;42.668;23.250;2023-12-28T00:44:51;13.47;;;10.70;;
5297;SDS011;14738;42.668;23.250;2023-12-28T00:47:17;17.37;;;11.73;;
5297;SDS011;14738;42.668;23.250;2023-12-28T00:49:43;13.63;;;10.10;;
5297;SDS011;14738;42.668;23.250;2023-12-28T00:52:08;14.80;;;10.87;;
5297;SDS011;14738;42.668;23.250;2023-12-28T00:54:35;17.70;;;11.50;;
5297;SDS011;14738;42.668;23.250;2023-12-28T00:57:02;19.93;;;14.23;;
5297;SDS011;14738;42.668;23.250;2023-12-28T00:59:28;17.93;;;12.87;;
5297;SDS011;14738;42.668;23.250;2023-12-28T01:01:55;19.57;;;14.20;;
5297;SDS011;14738;42.668;23.250;2023-12-28T01:04:20;21.90;;;14.40;;
5297;SDS011;14738;42.668;23.250;2023-12-28T01:06:48;20.33;;;13.03;;
5297;SDS011;14738;42.668;23.250;2023-12-28T01:09:14;20.60;;;14.70;;
5297;SDS011;14738;42.668;23.250;2023-12-28T01:11:39;18.10;;;12.90;;
5297;SDS011;14738;42.668;23.250;2023-12-28T01:14:05;24.33;;;13.70;;
5297;SDS011;14738;42.668;23.250;2023-12-28T01:16:30;15.73;;;13.30;;
5297;SDS011;14738;42.668;23.250;2023-12-28T01:18:55;18.50;;;12.53;;
5297;SDS011;14738;42.668;23.250;2023-12-28T01:21:21;14.53;;;12.47;;
5297;SDS011;14738;42.668;23.250;2023-12-28T01:23:46;15.23;;;11.33;;
5297;SDS011;14738;42.668;23.250;2023-12-28T01:26:15;15.60;;;11.53;;
5297;SDS011;14738;42.668;23.250;2023-12-28T01:28:40;17.10;;;12.43;;
5297;SDS011;14738;42.668;23.250;2023-12-28T01:31:06;13.07;;;10.83;;
5297;SDS011;14738;42.668;23.250;2023-12-28T01:33:31;18.10;;;12.07;;
5297;SDS011;14738;42.668;23.250;2023-12-28T01:35:56;15.70;;;11.77;;
5297;SDS011;14738;42.668;23.250;2023-12-28T01:38:22;16.33;;;10.57;;
5297;SDS011;14738;42.668;23.250;2023-12-28T01:40:47;17.00;;;12.10;;
5297;SDS011;14738;42.668;23.250;2023-12-28T01:43:13;14.00;;;10.40;;
5297;SDS011;14738;42.668;23.250;2023-12-28T01:45:38;13.37;;;10.40;;
5297;SDS011;14738;42.668;23.250;2023-12-28T01:48:03;15.23;;;11.10;;
5297;SDS011;14738;42.668;23.250;2023-12-28T01:50:30;18.80;;;10.80;;
5297;SDS011;14738;42.668;23.250;2023-12-28T01:52:56;16.20;;;10.63;;
5297;SDS011;14738;42.668;23.250;2023-12-28T01:55:25;15.70;;;9.50;;
5297;SDS011;14738;42.668;23.250;2023-12-28T01:57:51;14.23;;;9.90;;
5297;SDS011;14738;42.668;23.250;2023-12-28T02:00:17;10.23;;;9.13;;
5297;SDS011;14738;42.668;23.250;2023-12-28T02:02:44;17.63;;;10.60;;
5297;SDS011;14738;42.668;23.250;2023-12-28T02:05:13;13.50;;;10.33;;
5297;SDS011;14738;42.668;23.250;2023-12-28T02:07:39;16.43;;;10.27;;
5297;SDS011;14738;42.668;23.250;2023-12-28T02:10:04;11.03;;;9.60;;
5297;SDS011;14738;42.668;23.250;2023-12-28T02:12:30;14.20;;;8.90;;
5297;SDS011;14738;42.668;23.250;2023-12-28T02:14:56;10.73;;;8.70;;
5297;SDS011;14738;42.668;23.250;2023-12-28T02:17:23;12.50;;;9.27;;
5297;SDS011;14738;42.668;23.250;2023-12-28T02:20:00;11.03;;;7.60;;
5297;SDS011;14738;42.668;23.250;2023-12-28T02:22:26;16.03;;;9.00;;
5297;SDS011;14738;42.668;23.250;2023-12-28T02:27:24;9.37;;;7.30;;
5297;SDS011;14738;42.668;23.250;2023-12-28T02:29:50;12.40;;;9.23;;
5297;SDS011;14738;42.668;23.250;2023-12-28T02:32:15;9.57;;;7.20;;
5297;SDS011;14738;42.668;23.250;2023-12-28T02:34:44;12.33;;;6.37;;
5297;SDS011;14738;42.668;23.250;2023-12-28T02:37:12;10.77;;;6.90;;
5297;SDS011;14738;42.668;23.250;2023-12-28T02:39:41;11.50;;;8.33;;
5297;SDS011;14738;42.668;23.250;2023-12-28T02:42:08;11.37;;;9.37;;
5297;SDS011;14738;42.668;23.250;2023-12-28T02:44:34;14.00;;;11.07;;
5297;SDS011;14738;42.668;23.250;2023-12-28T02:46:59;12.80;;;10.73;;
5297;SDS011;14738;42.668;23.250;2023-12-28T02:49:25;10.33;;;9.10;;
5297;SDS011;14738;42.668;23.250;2023-12-28T02:51:50;10.67;;;8.57;;
5297;SDS011;14738;42.668;23.250;2023-12-28T02:54:15;14.90;;;9.03;;
5297;SDS011;14738;42.668;23.250;2023-12-28T02:56:41;11.90;;;10.00;;
5297;SDS011;14738;42.668;23.250;2023-12-28T02:59:06;15.80;;;11.30;;
5297;SDS011;14738;42.668;23.250;2023-12-28T03:01:32;12.40;;;8.90;;
5297;SDS011;14738;42.668;23.250;2023-12-28T03:03:57;15.97;;;11.17;;
5297;SDS011;14738;42.668;23.250;2023-12-28T03:06:22;17.50;;;9.93;;
5297;SDS011;14738;42.668;23.250;2023-12-28T03:08:48;11.10;;;9.40;;
5297;SDS011;14738;42.668;23.250;2023-12-28T03:11:14;23.93;;;13.27;;
5297;SDS011;14738;42.668;23.250;2023-12-28T03:13:39;23.50;;;15.00;;
5297;SDS011;14738;42.668;23.250;2023-12-28T03:16:05;28.37;;;16.00;;
5297;SDS011;14738;42.668;23.250;2023-12-28T03:18:30;24.80;;;14.87;;
5297;SDS011;14738;42.668;23.250;2023-12-28T03:20:56;26.23;;;15.10;;
5297;SDS011;14738;42.668;23.250;2023-12-28T03:23:21;24.30;;;15.10;;
5297;SDS011;14738;42.668;23.250;2023-12-28T03:25:46;22.37;;;13.50;;
5297;SDS011;14738;42.668;23.250;2023-12-28T03:28:12;19.10;;;12.93;;
5297;SDS011;14738;42.668;23.250;2023-12-28T03:30:37;16.63;;;12.60;;
5297;SDS011;14738;42.668;23.250;2023-12-28T03:33:02;14.67;;;11.90;;
5297;SDS011;14738;42.668;23.250;2023-12-28T03:35:28;17.50;;;12.10;;
5297;SDS011;14738;42.668;23.250;2023-12-28T03:37:53;20.67;;;13.37;;
5297;SDS011;14738;42.668;23.250;2023-12-28T03:40:19;19.47;;;12.97;;
5297;SDS011;14738;42.668;23.250;2023-12-28T03:42:45;17.03;;;11.83;;
5297;SDS011;14738;42.668;23.250;2023-12-28T03:45:10;17.87;;;10.93;;
5297;SDS011;14738;42.668;23.250;2023-12-28T03:47:36;26.83;;;14.87;;
5297;SDS011;14738;42.668;23.250;2023-12-28T03:50:02;19.03;;;12.30;;
5297;SDS011;14738;42.668;23.250;2023-12-28T03:52:28;19.40;;;13.00;;
5297;SDS011;14738;42.668;23.250;2023-12-28T03:54:57;18.70;;;11.87;;
5297;SDS011;14738;42.668;23.250;2023-12-28T03:57:22;18.80;;;13.20;;
5297;SDS011;14738;42.668;23.250;2023-12-28T03:59:47;22.23;;;13.93;;
5297;SDS011;14738;42.668;23.250;2023-12-28T04:02:13;26.33;;;15.13;;
5297;SDS011;14738;42.668;23.250;2023-12-28T04:04:38;21.90;;;14.77;;
5297;SDS011;14738;42.668;23.250;2023-12-28T04:07:04;23.63;;;14.23;;
5297;SDS011;14738;42.668;23.250;2023-12-28T04:09:32;22.60;;;13.93;;
5297;SDS011;14738;42.668;23.250;2023-12-28T04:11:58;26.17;;;15.63;;
5297;SDS011;14738;42.668;23.250;2023-12-28T04:14:23;23.50;;;15.07;;
5297;SDS011;14738;42.668;23.250;2023-12-28T04:16:48;27.13;;;14.60;;
5297;SDS011;14738;42.668;23.250;2023-12-28T04:19:14;18.60;;;13.50;;
5297;SDS011;14738;42.668;23.250;2023-12-28T04:21:42;16.10;;;13.30;;
5297;SDS011;14738;42.668;23.250;2023-12-28T04:24:08;22.50;;;13.57;;
5297;SDS011;14738;42.668;23.250;2023-12-28T04:26:34;14.60;;;10.93;;
5297;SDS011;14738;42.668;23.250;2023-12-28T04:28:59;14.50;;;11.43;;
5297;SDS011;14738;42.668;23.250;2023-12-28T04:31:25;15.50;;;11.17;;
5297;SDS011;14738;42.668;23.250;2023-12-28T04:33:50;17.50;;;11.73;;
5297;SDS011;14738;42.668;23.250;2023-12-28T04:36:16;18.03;;;11.97;;
5297;SDS011;14738;42.668;23.250;2023-12-28T04:38:41;14.73;;;10.50;;
5297;SDS011;14738;42.668;23.250;2023-12-28T04:41:06;15.17;;;10.70;;
5297;SDS011;14738;42.668;23.250;2023-12-28T04:43:34;13.83;;;10.00;;
5297;SDS011;14738;42.668;23.250;2023-12-28T04:46:03;16.10;;;9.90;;
5297;SDS011;14738;42.668;23.250;2023-12-28T04:48:29;16.53;;;11.20;;
5297;SDS011;14738;42.668;23.250;2023-12-28T04:50:54;19.50;;;14.77;;
5297;SDS011;14738;42.668;23.250;2023-12-28T04:53:20;18.13;;;12.13;;
5297;SDS011;14738;42.668;23.250;2023-12-28T04:55:45;23.57;;;17.40;;
5297;SDS011;14738;42.668;23.250;2023-12-28T04:58:10;20.47;;;15.00;;
5297;SDS011;14738;42.668;23.250;2023-12-28T05:00:37;20.10;;;15.57;;
5297;SDS011;14738;42.668;23.250;2023-12-28T05:03:02;23.67;;;16.03;;
5297;SDS011;14738;42.668;23.250;2023-12-28T05:05:28;22.47;;;16.23;;
5297;SDS011;14738;42.668;23.250;2023-12-28T05:07:53;21.13;;;14.33;;
5297;SDS011;14738;42.668;23.250;2023-12-28T05:10:18;26.43;;;19.33;;
5297;SDS011;14738;42.668;23.250;2023-12-28T05:12:44;23.40;;;17.90;;
5297;SDS011;14738;42.668;23.250;2023-12-28T05:15:09;32.47;;;20.23;;
5297;SDS011;14738;42.668;23.250;2023-12-28T05:17:35;25.67;;;18.43;;
5297;SDS011;14738;42.668;23.250;2023-12-28T05:20:00;24.07;;;18.00;;
5297;SDS011;14738;42.668;23.250;2023-12-28T05:22:26;21.47;;;15.00;;
5297;SDS011;14738;42.668;23.250;2023-12-28T05:24:51;20.37;;;15.17;;
5297;SDS011;14738;42.668;23.250;2023-12-28T05:27:16;20.60;;;14.33;;
5297;SDS011;14738;42.668;23.250;2023-12-28T05:29:42;17.10;;;13.93;;
5297;SDS011;14738;42.668;23.250;2023-12-28T05:32:07;19.47;;;14.20;;
5297;SDS011;14738;42.668;23.250;2023-12-28T05:34:33;20.90;;;14.80;;
5297;SDS011;14738;42.668;23.250;2023-12-28T05:36:58;22.80;;;16.47;;
5297;SDS011;14738;42.668;23.250;2023-12-28T05:39:23;22.63;;;17.03;;
5297;SDS011;14738;42.668;23.250;2023-12-28T05:41:49;20.63;;;14.77;;
5297;SDS011;14738;42.668;23.250;2023-12-28T05:44:15;19.70;;;12.83;;
5297;SDS011;14738;42.668;23.250;2023-12-28T05:46:41;16.40;;;13.47;;
5297;SDS011;14738;42.668;23.250;2023-12-28T05:49:07;17.60;;;12.90;;
5297;SDS011;14738;42.668;23.250;2023-12-28T05:51:41;14.53;;;12.40;;
5297;SDS011;14738;42.668;23.250;2023-12-28T05:54:07;20.27;;;13.80;;
5297;SDS011;14738;42.668;23.250;2023-12-28T05:56:33;17.33;;;13.43;;
5297;SDS011;14738;42.668;23.250;2023-12-28T05:58:58;18.70;;;14.40;;
5297;SDS011;14738;42.668;23.250;2023-12-28T06:01:24;20.73;;;15.20;;
5297;SDS011;14738;42.668;23.250;2023-12-28T06:03:49;36.23;;;21.30;;
5297;SDS011;14738;42.668;23.250;2023-12-28T06:06:17;28.10;;;19.20;;
5297;SDS011;14738;42.668;23.250;2023-12-28T06:08:43;29.37;;;20.73;;
5297;SDS011;14738;42.668;23.250;2023-12-28T06:11:08;28.47;;;18.77;;
5297;SDS011;14738;42.668;23.250;2023-12-28T06:13:34;25.07;;;17.93;;
5297;SDS011;14738;42.668;23.250;2023-12-28T06:15:59;19.33;;;15.27;;
5297;SDS011;14738;42.668;23.250;2023-12-28T06:18:24;20.87;;;14.60;;
5297;SDS011;14738;42.668;23.250;2023-12-28T06:20:50;21.43;;;15.07;;
5297;SDS011;14738;42.668;23.250;2023-12-28T06:23:15;26.40;;;16.03;;
5297;SDS011;14738;42.668;23.250;2023-12-28T06:25:40;21.20;;;15.07;;
5297;SDS011;14738;42.668;23.250;2023-12-28T06:28:06;30.97;;;19.00;;
5297;SDS011;14738;42.668;23.250;2023-12-28T06:30:31;36.33;;;20.63;;
5297;SDS011;14738;42.668;23.250;2023-12-28T06:32:57;31.83;;;19.70;;
5297;SDS011;14738;42.668;23.250;2023-12-28T06:35:23;30.93;;;20.97;;
5297;SDS011;14738;42.668;23.250;2023-12-28T06:37:48;27.40;;;18.10;;
5297;SDS011;14738;42.668;23.250;2023-12-28T06:40:13;25.57;;;18.30;;
5297;SDS011;14738;42.668;23.250;2023-12-28T06:42:39;29.90;;;19.40;;
5297;SDS011;14738;42.668;23.250;2023-12-28T06:45:06;28.20;;;18.83;;
5297;SDS011;14738;42.668;23.250;2023-12-28T06:47:31;26.67;;;17.97;;
5297;SDS011;14738;42.668;23.250;2023-12-28T06:49:57;31.70;;;19.30;;
5297;SDS011;14738;42.668;23.250;2023-12-28T06:52:22;28.37;;;20.37;;
5297;SDS011;14738;42.668;23.250;2023-12-28T06:54:50;30.60;;;18.87;;
5297;SDS011;14738;42.668;23.250;2023-12-28T06:57:16;32.60;;;20.80;;
5297;SDS011;14738;42.668;23.250;2023-12-28T06:59:41;37.97;;;24.90;;
5297;SDS011;14738;42.668;23.250;2023-12-28T07:02:07;42.23;;;24.57;;
5297;SDS011;14738;42.668;23.250;2023-12-28T07:04:32;46.77;;;28.03;;
5297;SDS011;14738;42.668;23.250;2023-12-28T07:06:58;36.33;;;22.43;;
5297;SDS011;14738;42.668;23.250;2023-12-28T07:09:23;27.73;;;20.13;;
5297;SDS011;14738;42.668;23.250;2023-12-28T07:11:49;21.63;;;16.80;;
5297;SDS011;14738;42.668;23.250;2023-12-28T07:14:14;22.73;;;16.73;;
5297;SDS011;14738;42.668;23.250;2023-12-28T07:16:39;27.70;;;18.67;;
5297;SDS011;14738;42.668;23.250;2023-12-28T07:19:05;27.13;;;16.70;;
5297;SDS011;14738;42.668;23.250;2023-12-28T07:21:30;44.67;;;23.13;;
5297;SDS011;14738;42.668;23.250;2023-12-28T07:23:55;49.67;;;26.40;;
5297;SDS011;14738;42.668;23.250;2023-12-28T07:26:21;36.00;;;22.90;;
5297;SDS011;14738;42.668;23.250;2023-12-28T07:28:46;34.90;;;23.70;;
5297;SDS011;14738;42.668;23.250;2023-12-28T07:31:23;29.97;;;22.50;;
5297;SDS011;14738;42.668;23.250;2023-12-28T07:33:49;33.73;;;21.47;;
5297;SDS011;14738;42.668;23.250;2023-12-28T07:36:15;36.60;;;24.00;;
5297;SDS011;14738;42.668;23.250;2023-12-28T07:38:40;35.60;;;23.03;;
5297;SDS011;14738;42.668;23.250;2023-12-28T07:41:05;36.30;;;22.20;;
5297;SDS011;14738;42.668;23.250;2023-12-28T07:43:31;40.07;;;24.50;;
5297;SDS011;14738;42.668;23.250;2023-12-28T07:45:56;36.33;;;22.93;;
5297;SDS011;14738;42.668;23.250;2023-12-28T07:48:21;35.00;;;24.13;;
5297;SDS011;14738;42.668;23.250;2023-12-28T07:50:47;36.47;;;24.77;;
5297;SDS011;14738;42.668;23.250;2023-12-28T07:53:14;31.87;;;22.00;;
5297;SDS011;14738;42.668;23.250;2023-12-28T07:55:39;39.80;;;25.47;;
5297;SDS011;14738;42.668;23.250;2023-12-28T07:58:04;42.13;;;28.60;;
5297;SDS011;14738;42.668;23.250;2023-12-28T08:00:30;37.37;;;26.90;;
5297;SDS011;14738;42.668;23.250;2023-12-28T08:02:55;41.57;;;28.53;;
5297;SDS011;14738;42.668;23.250;2023-12-28T08:05:21;37.93;;;27.87;;
5297;SDS011;14738;42.668;23.250;2023-12-28T08:07:46;36.73;;;25.93;;
5297;SDS011;14738;42.668;23.250;2023-12-28T08:10:12;39.03;;;27.07;;
5297;SDS011;14738;42.668;23.250;2023-12-28T08:12:37;34.90;;;26.47;;
5297;SDS011;14738;42.668;23.250;2023-12-28T08:15:02;36.40;;;26.20;;
5297;SDS011;14738;42.668;23.250;2023-12-28T08:17:28;41.13;;;26.10;;
5297;SDS011;14738;42.668;23.250;2023-12-28T08:19:53;35.10;;;25.90;;
5297;SDS011;14738;42.668;23.250;2023-12-28T08:22:20;37.80;;;24.03;;
5297;SDS011;14738;42.668;23.250;2023-12-28T08:24:45;45.40;;;27.83;;
5297;SDS011;14738;42.668;23.250;2023-12-28T08:27:11;36.27;;;26.33;;
5297;SDS011;14738;42.668;23.250;2023-12-28T08:29:36;33.83;;;25.47;;
5297;SDS011;14738;42.668;23.250;2023-12-28T08:32:02;34.93;;;25.20;;
5297;SDS011;14738;42.668;23.250;2023-12-28T08:34:27;39.23;;;26.63;;
5297;SDS011;14738;42.668;23.250;2023-12-28T08:36:53;32.20;;;25.00;;
5297;SDS011;14738;42.668;23.250;2023-12-28T08:39:18;37.40;;;25.03;;
5297;SDS011;14738;42.668;23.250;2023-12-28T08:41:43;38.57;;;26.30;;
5297;SDS011;14738;42.668;23.250;2023-12-28T08:44:09;35.23;;;24.70;;
5297;SDS011;14738;42.668;23.250;2023-12-28T08:46:34;33.23;;;23.77;;
5297;SDS011;14738;42.668;23.250;2023-12-28T08:49:00;31.30;;;22.23;;
5297;SDS011;14738;42.668;23.250;2023-12-28T08:51:25;30.50;;;21.93;;
5297;SDS011;14738;42.668;23.250;2023-12-28T08:53:50;31.53;;;23.17;;
5297;SDS011;14738;42.668;23.250;2023-12-28T08:56:16;26.10;;;20.37;;
5297;SDS011;14738;42.668;23.250;2023-12-28T08:58:43;31.13;;;21.47;;
5297;SDS011;14738;42.668;23.250;2023-12-28T09:01:15;38.00;;;23.73;;
5297;SDS011;14738;42.668;23.250;2023-12-28T09:03:54;32.27;;;21.80;;
5297;SDS011;14738;42.668;23.250;2023-12-28T09:06:20;29.10;;;21.60;;
5297;SDS011;14738;42.668;23.250;2023-12-28T09:08:47;34.83;;;23.70;;
5297;SDS011;14738;42.668;23.250;2023-12-28T09:11:15;34.90;;;25.70;;
5297;SDS011;14738;42.668;23.250;2023-12-28T09:13:41;34.23;;;25.83;;
5297;SDS011;14738;42.668;23.250;2023-12-28T09:16:07;32.10;;;23.80;;
5297;SDS011;14738;42.668;23.250;2023-12-28T09:18:35;25.10;;;20.77;;
5297;SDS011;14738;42.668;23.250;2023-12-28T09:21:07;30.50;;;21.43;;
5297;SDS011;14738;42.668;23.250;2023-12-28T09:23:34;33.63;;;22.43;;
5297;SDS011;14738;42.668;23.250;2023-12-28T09:26:00;29.03;;;21.53;;
5297;SDS011;14738;42.668;23.250;2023-12-28T09:28:30;28.47;;;23.03;;
5297;SDS011;14738;42.668;23.250;2023-12-28T09:30:56;35.47;;;26.13;;
5297;SDS011;14738;42.668;23.250;2023-12-28T09:33:22;31.17;;;23.90;;
5297;SDS011;14738;42.668;23.250;2023-12-28T09:35:47;29.20;;;22.80;;
5297;SDS011;14738;42.668;23.250;2023-12-28T09:38:13;39.80;;;23.80;;
5297;SDS011;14738;42.668;23.250;2023-12-28T09:40:42;38.57;;;24.53;;
5297;SDS011;14738;42.668;23.250;2023-12-28T09:46:06;30.50;;;20.83;;
5297;SDS011;14738;42.668;23.250;2023-12-28T09:48:36;29.67;;;21.00;;
5297;SDS011;14738;42.668;23.250;2023-12-28T09:51:04;24.93;;;20.53;;
5297;SDS011;14738;42.668;23.250;2023-12-28T09:53:30;27.10;;;21.60;;
5297;SDS011;14738;42.668;23.250;2023-12-28T09:55:56;29.77;;;22.50;;
5297;SDS011;14738;42.668;23.250;2023-12-28T09:58:22;30.00;;;22.73;;
5297;SDS011;14738;42.668;23.250;2023-12-28T10:00:49;31.57;;;21.47;;
5297;SDS011;14738;42.668;23.250;2023-12-28T10:03:15;32.73;;;20.73;;
5297;SDS011;14738;42.668;23.250;2023-12-28T10:05:42;30.43;;;23.17;;
5297;SDS011;14738;42.668;23.250;2023-12-28T10:08:12;28.23;;;22.67;;
5297;SDS011;14738;42.668;23.250;2023-12-28T10:10:41;33.33;;;22.50;;
5297;SDS011;14738;42.668;23.250;2023-12-28T10:13:08;25.30;;;21.53;;
5297;SDS011;14738;42.668;23.250;2023-12-28T10:15:35;31.47;;;23.77;;
5297;SDS011;14738;42.668;23.250;2023-12-28T10:18:00;30.07;;;20.93;;
5297;SDS011;14738;42.668;23.250;2023-12-28T10:20:26;31.87;;;23.77;;
5297;SDS011;14738;42.668;23.250;2023-12-28T10:22:52;28.80;;;22.50;;
5297;SDS011;14738;42.668;23.250;2023-12-28T10:25:18;28.03;;;22.67;;
5297;SDS011;14738;42.668;23.250;2023-12-28T10:27:44;36.90;;;22.67;;
5297;SDS011;14738;42.668;23.250;2023-12-28T10:30:09;32.43;;;21.20;;
5297;SDS011;14738;42.668;23.250;2023-12-28T10:32:36;33.73;;;23.60;;
5297;SDS011;14738;42.668;23.250;2023-12-28T10:35:04;33.50;;;23.70;;
5297;SDS011;14738;42.668;23.250;2023-12-28T10:37:30;29.97;;;22.50;;
5297;SDS011;14738;42.668;23.250;2023-12-28T10:39:58;29.50;;;20.00;;
5297;SDS011;14738;42.668;23.250;2023-12-28T10:42:28;24.23;;;20.20;;
5297;SDS011;14738;42.668;23.250;2023-12-28T10:45:02;33.20;;;20.93;;
5297;SDS011;14738;42.668;23.250;2023-12-28T10:47:37;29.57;;;21.90;;
5297;SDS011;14738;42.668;23.250;2023-12-28T10:50:04;33.43;;;22.63;;
5297;SDS011;14738;42.668;23.250;2023-12-28T10:52:32;31.43;;;25.43;;
5297;SDS011;14738;42.668;23.250;2023-12-28T11:01:13;36.20;;;24.13;;
5297;SDS011;14738;42.668;23.250;2023-12-28T11:03:34;39.63;;;28.23;;
5297;SDS011;14738;42.668;23.250;2023-12-28T11:06:04;45.10;;;29.37;;
5297;SDS011;14738;42.668;23.250;2023-12-28T11:08:32;37.73;;;27.40;;
5297;SDS011;14738;42.668;23.250;2023-12-28T11:10:59;37.10;;;28.23;;
5297;SDS011;14738;42.668;23.250;2023-12-28T11:13:30;35.20;;;28.07;;
5297;SDS011;14738;42.668;23.250;2023-12-28T11:15:57;45.37;;;31.63;;
5297;SDS011;14738;42.668;23.250;2023-12-28T11:18:24;53.60;;;31.77;;
5297;SDS011;14738;42.668;23.250;2023-12-28T11:20:53;41.80;;;31.70;;
5297;SDS011;14738;42.668;23.250;2023-12-28T11:23:18;48.23;;;33.50;;
5297;SDS011;14738;42.668;23.250;2023-12-28T11:25:44;43.87;;;33.60;;
5297;SDS011;14738;42.668;23.250;2023-12-28T11:28:11;42.80;;;32.67;;
5297;SDS011;14738;42.668;23.250;2023-12-28T11:30:37;48.00;;;34.40;;
5297;SDS011;14738;42.668;23.250;2023-12-28T11:33:06;48.30;;;34.17;;
5297;SDS011;14738;42.668;23.250;2023-12-28T11:35:35;50.03;;;32.07;;
5297;SDS011;14738;42.668;23.250;2023-12-28T11:38:02;46.33;;;33.87;;
5297;SDS011;14738;42.668;23.250;2023-12-28T11:40:39;47.43;;;33.27;;
5297;SDS011;14738;42.668;23.250;2023-12-28T11:43:14;49.40;;;33.13;;
5297;SDS011;14738;42.668;23.250;2023-12-28T11:45:46;50.47;;;32.40;;
5297;SDS011;14738;42.668;23.250;2023-12-28T11:48:22;44.10;;;33.17;;
5297;SDS011;14738;42.668;23.250;2023-12-28T11:50:54;48.50;;;32.93;;
5297;SDS011;14738;42.668;23.250;2023-12-28T11:53:25;43.87;;;33.30;;
5297;SDS011;14738;42.668;23.250;2023-12-28T11:55:51;46.27;;;31.97;;
5297;SDS011;14738;42.668;23.250;2023-12-28T11:58:17;39.10;;;29.93;;
5297;SDS011;14738;42.668;23.250;2023-12-28T12:00:43;39.90;;;29.77;;
5297;SDS011;14738;42.668;23.250;2023-12-28T12:03:11;39.40;;;29.43;;
5297;SDS011;14738;42.668;23.250;2023-12-28T12:05:37;50.40;;;29.43;;
5297;SDS011;14738;42.668;23.250;2023-12-28T12:08:04;41.33;;;28.30;;
5297;SDS011;14738;42.668;23.250;2023-12-28T12:10:30;41.50;;;28.77;;
5297;SDS011;14738;42.668;23.250;2023-12-28T12:12:57;36.57;;;26.80;;
5297;SDS011;14738;42.668;23.250;2023-12-28T12:15:22;40.47;;;30.63;;
5297;SDS011;14738;42.668;23.250;2023-12-28T12:17:48;39.77;;;25.27;;
5297;SDS011;14738;42.668;23.250;2023-12-28T12:20:14;42.93;;;29.73;;
5297;SDS011;14738;42.668;23.250;2023-12-28T12:22:39;39.23;;;28.53;;
5297;SDS011;14738;42.668;23.250;2023-12-28T12:25:05;36.70;;;26.57;;
5297;SDS011;14738;42.668;23.250;2023-12-28T12:27:31;40.90;;;25.50;;
5297;SDS011;14738;42.668;23.250;2023-12-28T12:29:57;34.00;;;24.70;;
5297;SDS011;14738;42.668;23.250;2023-12-28T12:32:22;34.10;;;24.60;;
5297;SDS011;14738;42.668;23.250;2023-12-28T12:34:49;32.53;;;23.10;;
5297;SDS011;14738;42.668;23.250;2023-12-28T12:37:16;31.10;;;23.37;;
5297;SDS011;14738;42.668;23.250;2023-12-28T12:39:41;36.07;;;24.13;;
5297;SDS011;14738;42.668;23.250;2023-12-28T12:42:12;29.50;;;19.00;;
5297;SDS011;14738;42.668;23.250;2023-12-28T12:44:38;26.13;;;18.30;;
5297;SDS011;14738;42.668;23.250;2023-12-28T12:47:04;24.07;;;17.27;;
5297;SDS011;14738;42.668;23.250;2023-12-28T12:49:29;21.97;;;16.63;;
5297;SDS011;14738;42.668;23.250;2023-12-28T12:51:55;29.00;;;16.77;;
5297;SDS011;14738;42.668;23.250;2023-12-28T12:54:22;24.63;;;18.17;;
5297;SDS011;14738;42.668;23.250;2023-12-28T12:56:49;22.57;;;18.10;;
5297;SDS011;14738;42.668;23.250;2023-12-28T12:59:15;27.50;;;19.07;;
5297;SDS011;14738;42.668;23.250;2023-12-28T13:01:41;27.60;;;21.10;;
5297;SDS011;14738;42.668;23.250;2023-12-28T13:04:07;27.90;;;20.77;;
5297;SDS011;14738;42.668;23.250;2023-12-28T13:06:33;27.63;;;21.30;;
5297;SDS011;14738;42.668;23.250;2023-12-28T13:08:59;28.80;;;20.93;;
5297;SDS011;14738;42.668;23.250;2023-12-28T13:11:25;28.80;;;22.63;;
5297;SDS011;14738;42.668;23.250;2023-12-28T13:13:51;29.93;;;21.77;;
5297;SDS011;14738;42.668;23.250;2023-12-28T13:16:17;38.77;;;23.90;;
5297;SDS011;14738;42.668;23.250;2023-12-28T13:18:43;31.07;;;24.93;;
5297;SDS011;14738;42.668;23.250;2023-12-28T13:21:08;36.60;;;23.00;;
5297;SDS011;14738;42.668;23.250;2023-12-28T13:23:34;41.27;;;24.40;;
5297;SDS011;14738;42.668;23.250;2023-12-28T13:25:59;41.13;;;25.87;;
5297;SDS011;14738;42.668;23.250;2023-12-28T13:28:25;35.80;;;25.27;;
5297;SDS011;14738;42.668;23.250;2023-12-28T13:30:50;43.60;;;24.80;;
5297;SDS011;14738;42.668;23.250;2023-12-28T13:33:16;39.13;;;23.33;;
5297;SDS011;14738;42.668;23.250;2023-12-28T13:35:41;37.87;;;24.27;;
5297;SDS011;14738;42.668;23.250;2023-12-28T13:38:07;35.40;;;26.53;;
5297;SDS011;14738;42.668;23.250;2023-12-28T13:40:33;33.30;;;23.70;;
5297;SDS011;14738;42.668;23.250;2023-12-28T13:42:58;29.63;;;22.90;;
5297;SDS011;14738;42.668;23.250;2023-12-28T13:45:24;36.37;;;24.47;;
5297;SDS011;14738;42.668;23.250;2023-12-28T13:47:50;34.33;;;24.33;;
5297;SDS011;14738;42.668;23.250;2023-12-28T13:50:15;34.03;;;25.03;;
5297;SDS011;14738;42.668;23.250;2023-12-28T13:52:41;33.50;;;25.20;;
5297;SDS011;14738;42.668;23.250;2023-12-28T13:55:06;31.53;;;24.50;;
5297;SDS011;14738;42.668;23.250;2023-12-28T13:57:32;36.83;;;23.53;;
5297;SDS011;14738;42.668;23.250;2023-12-28T13:59:57;38.00;;;24.60;;
5297;SDS011;14738;42.668;23.250;2023-12-28T14:02:25;34.80;;;25.37;;
5297;SDS011;14738;42.668;23.250;2023-12-28T14:04:54;29.97;;;24.50;;
5297;SDS011;14738;42.668;23.250;2023-12-28T14:07:21;32.27;;;24.73;;
5297;SDS011;14738;42.668;23.250;2023-12-28T14:09:52;32.93;;;24.07;;
5297;SDS011;14738;42.668;23.250;2023-12-28T14:12:17;36.17;;;26.10;;
5297;SDS011;14738;42.668;23.250;2023-12-28T14:14:43;34.33;;;23.67;;
5297;SDS011;14738;42.668;23.250;2023-12-28T14:17:08;40.43;;;26.43;;
5297;SDS011;14738;42.668;23.250;2023-12-28T14:19:33;42.63;;;25.97;;
5297;SDS011;14738;42.668;23.250;2023-12-28T14:22:00;37.33;;;24.13;;
5297;SDS011;14738;42.668;23.250;2023-12-28T14:24:25;34.83;;;24.47;;
5297;SDS011;14738;42.668;23.250;2023-12-28T14:26:54;39.30;;;24.00;;
5297;SDS011;14738;42.668;23.250;2023-12-28T14:29:23;50.87;;;27.33;;